createdAt,value
2022-11-30T00:01:23.629Z,101704.38
2022-11-30T00:06:24.983Z,101700.72
2022-11-30T00:11:25.574Z,101709.56
2022-11-30T00:16:24.548Z,101719.28
2022-11-30T00:21:24.857Z,101715.75
2022-11-30T00:26:23.773Z,101709.78
2022-11-30T00:31:22.715Z,101698.34
2022-11-30T00:36:23.191Z,101700.88
2022-11-30T00:41:23.378Z,101711.44
2022-11-30T00:46:22.328Z,101712.34
2022-11-30T00:51:21.196Z,101703.56
2022-11-30T00:56:20.101Z,101705.31
2022-11-30T01:01:20.495Z,101706.78
2022-11-30T01:06:19.460Z,101692.31
2022-11-30T01:11:22.458Z,101688.88
2022-11-30T01:16:25.192Z,101680.06
2022-11-30T01:21:26.161Z,101677.59
2022-11-30T01:26:26.139Z,101674.88
2022-11-30T01:31:26.678Z,101670.34
2022-11-30T01:36:27.727Z,101677.28
2022-11-30T01:41:29.491Z,101665.00
2022-11-30T01:46:35.265Z,101644.16
2022-11-30T01:51:38.174Z,101633.84
2022-11-30T01:56:37.669Z,101629.44
2022-11-30T02:01:38.157Z,101641.41
2022-11-30T02:06:37.259Z,101664.94
2022-11-30T02:11:36.136Z,101676.50
2022-11-30T02:16:49.026Z,101673.19
2022-11-30T02:21:54.833Z,101680.13
2022-11-30T02:27:05.315Z,101682.50
2022-11-30T02:32:11.037Z,101678.38
2022-11-30T02:37:13.942Z,101683.44
2022-11-30T02:42:14.455Z,101681.94
2022-11-30T02:47:22.557Z,101676.78
2022-11-30T02:52:25.415Z,101675.06
2022-11-30T02:57:24.409Z,101681.34
2022-11-30T03:02:25.370Z,101667.41
2022-11-30T03:07:27.137Z,101675.94
2022-11-30T03:12:26.130Z,101679.19
2022-11-30T03:17:27.603Z,101691.03
2022-11-30T03:22:26.920Z,101688.34
2022-11-30T03:27:25.933Z,101697.28
2022-11-30T03:32:28.925Z,101694.69
2022-11-30T03:37:27.756Z,101695.69
2022-11-30T03:42:26.815Z,101692.94
2022-11-30T03:47:27.069Z,101687.59
2022-11-30T03:52:25.974Z,101689.53
2022-11-30T03:57:24.723Z,101691.16
2022-11-30T04:02:23.564Z,101693.78
2022-11-30T04:07:24.161Z,101701.91
2022-11-30T04:12:23.139Z,101692.44
2022-11-30T04:17:22.081Z,101685.47
2022-11-30T04:22:21.032Z,101703.56
2022-11-30T04:27:21.328Z,101702.28
2022-11-30T04:32:20.246Z,101704.00
2022-11-30T04:37:19.231Z,101723.13
2022-11-30T04:42:18.247Z,101717.19
2022-11-30T04:47:18.483Z,101723.03
2022-11-30T04:52:17.456Z,101716.97
2022-11-30T04:57:16.281Z,101708.41
2022-11-30T05:02:15.387Z,101723.69
2022-11-30T05:07:15.606Z,101708.78
2022-11-30T05:12:14.545Z,101708.66
2022-11-30T05:17:14.810Z,101718.06
2022-11-30T05:22:13.658Z,101725.00
2022-11-30T05:27:19.362Z,101734.69
2022-11-30T05:32:21.183Z,101740.16
2022-11-30T05:37:20.261Z,101747.25
2022-11-30T05:42:20.620Z,101755.09
2022-11-30T05:47:20.900Z,101762.97
2022-11-30T05:52:20.047Z,101772.44
2022-11-30T05:57:20.493Z,101761.13
2022-11-30T06:02:23.729Z,101770.59
2022-11-30T06:07:26.552Z,101782.94
2022-11-30T06:12:26.840Z,101795.19
2022-11-30T06:17:25.714Z,101804.75
2022-11-30T06:22:24.532Z,101802.09
2022-11-30T06:27:23.395Z,101818.72
2022-11-30T06:32:23.618Z,101832.59
2022-11-30T06:37:22.518Z,101834.25
2022-11-30T06:42:21.521Z,101839.53
2022-11-30T06:47:20.566Z,101842.94
2022-11-30T06:52:21.022Z,101836.81
2022-11-30T06:57:20.065Z,101825.63
2022-11-30T07:02:19.217Z,101810.91
2022-11-30T07:07:18.346Z,101823.28
2022-11-30T07:12:19.091Z,101827.63
2022-11-30T07:17:17.938Z,101838.84
2022-11-30T07:22:17.265Z,101831.78
2022-11-30T07:27:16.423Z,101830.94
2022-11-30T07:32:19.219Z,101847.41
2022-11-30T07:37:18.249Z,101822.34
2022-11-30T07:42:18.797Z,101827.50
2022-11-30T07:47:19.223Z,101824.75
2022-11-30T07:52:18.232Z,101840.47
2022-11-30T07:57:17.295Z,101839.63
2022-11-30T08:02:16.752Z,101850.09
2022-11-30T08:07:19.446Z,101842.19
2022-11-30T08:12:19.077Z,101833.44
2022-11-30T08:17:18.794Z,101833.41
2022-11-30T08:22:19.529Z,101821.16
2022-11-30T08:27:18.675Z,101826.34
2022-11-30T08:32:17.790Z,101838.72
2022-11-30T08:37:18.215Z,101849.06
2022-11-30T08:42:17.341Z,101837.78
2022-11-30T08:47:16.602Z,101836.84
2022-11-30T08:52:17.429Z,101839.28
2022-11-30T08:57:20.516Z,101833.53
2022-11-30T09:02:20.886Z,101845.38
2022-11-30T09:07:20.087Z,101835.84
2022-11-30T09:12:20.686Z,101835.03
2022-11-30T09:17:19.644Z,101834.13
2022-11-30T09:22:18.652Z,101827.38
2022-11-30T09:27:17.666Z,101827.38
2022-11-30T09:32:18.116Z,101813.53
2022-11-30T09:37:16.998Z,101791.84
2022-11-30T09:42:27.529Z,101798.66
2022-11-30T09:47:50.594Z,101804.81
2022-11-30T09:52:53.431Z,101791.94
2022-11-30T09:57:56.396Z,101803.97
2022-11-30T10:02:59.025Z,101819.50
2022-11-30T10:08:30.024Z,101818.63
2022-11-30T10:13:45.449Z,101829.88
2022-11-30T10:18:54.085Z,101808.25
2022-11-30T10:24:07.247Z,101809.78
2022-11-30T10:29:18.144Z,101790.66
2022-11-30T10:34:24.508Z,101797.44
2022-11-30T10:39:30.978Z,101794.16
2022-11-30T10:44:33.445Z,101796.69
2022-11-30T10:49:35.334Z,101785.38
2022-11-30T10:54:37.531Z,101774.03
2022-11-30T10:59:44.620Z,101771.31
2022-11-30T11:04:45.196Z,101773.09
2022-11-30T11:09:47.592Z,101775.69
2022-11-30T11:14:46.832Z,101757.66
2022-11-30T11:19:49.877Z,101769.81
2022-11-30T11:24:50.752Z,101762.88
2022-11-30T11:30:01.682Z,101753.28
2022-11-30T11:35:02.293Z,101755.16
2022-11-30T11:40:05.722Z,101763.88
2022-11-30T11:45:06.040Z,101763.97
2022-11-30T11:50:50.312Z,101764.84
2022-11-30T11:55:46.533Z,101765.81
2022-11-30T12:00:47.717Z,101763.97
2022-11-30T12:05:52.849Z,101772.50
2022-11-30T12:10:56.774Z,101772.53
2022-11-30T12:16:08.205Z,101764.75
2022-11-30T12:21:15.048Z,101777.00
2022-11-30T12:26:24.311Z,101776.81
2022-11-30T12:31:31.555Z,101770.69
2022-11-30T12:36:47.523Z,101767.31
2022-11-30T12:41:52.768Z,101774.22
2022-11-30T12:47:00.056Z,101777.66
2022-11-30T12:52:10.508Z,101781.91
2022-11-30T12:57:18.033Z,101783.66
2022-11-30T13:02:42.120Z,101790.63
2022-11-30T13:07:47.705Z,101800.75
2022-11-30T13:12:52.128Z,101795.75
2022-11-30T13:17:52.056Z,101793.13
2022-11-30T13:22:58.924Z,101793.81
2022-11-30T13:28:13.149Z,101793.06
2022-11-30T13:33:40.385Z,101794.25
2022-11-30T13:38:40.991Z,101796.69
2022-11-30T13:43:47.859Z,101802.78
2022-11-30T13:48:49.703Z,101814.06
2022-11-30T13:53:50.312Z,101810.59
2022-11-30T13:59:23.722Z,101814.81
2022-11-30T14:04:34.660Z,101822.44
2022-11-30T14:10:01.091Z,101816.66
2022-11-30T14:15:00.702Z,101823.63
2022-11-30T14:20:09.362Z,101827.06
2022-11-30T14:25:15.200Z,101832.38
2022-11-30T14:30:19.131Z,101838.47
2022-11-30T14:35:20.328Z,101827.91
2022-11-30T14:40:25.081Z,101837.41
2022-11-30T14:45:29.751Z,101836.91
2022-11-30T14:50:28.695Z,101842.25
2022-11-30T14:55:33.745Z,101837.75
2022-11-30T15:00:39.037Z,101830.94
2022-11-30T15:05:41.019Z,101843.88
2022-11-30T15:10:46.490Z,101839.44
2022-11-30T15:15:52.907Z,101845.56
2022-11-30T15:20:57.478Z,101846.50
2022-11-30T15:26:02.452Z,101848.34
2022-11-30T15:31:06.069Z,101853.59
2022-11-30T15:36:22.977Z,101854.47
2022-11-30T15:41:27.058Z,101849.31
2022-11-30T15:46:31.732Z,101858.91
2022-11-30T15:51:39.431Z,101848.47
2022-11-30T15:56:39.817Z,101849.50
2022-11-30T16:02:02.353Z,101834.78
2022-11-30T16:07:05.554Z,101838.31
2022-11-30T16:12:06.324Z,101833.09
2022-11-30T16:17:08.949Z,101837.41
2022-11-30T16:22:11.021Z,101840.00
2022-11-30T16:27:17.554Z,101852.16
2022-11-30T16:32:17.421Z,101842.63
2022-11-30T16:37:16.329Z,101850.44
2022-11-30T16:42:16.916Z,101853.94
2022-11-30T16:47:16.210Z,101849.56
2022-11-30T16:52:18.957Z,101851.22
2022-11-30T16:57:22.625Z,101857.34
2022-11-30T17:02:25.128Z,101863.38
2022-11-30T17:07:25.734Z,101859.91
2022-11-30T17:12:29.226Z,101851.31
2022-11-30T17:17:31.293Z,101857.38
2022-11-30T17:22:31.020Z,101862.56
2022-11-30T17:27:40.552Z,101856.47
2022-11-30T17:32:39.970Z,101846.91
2022-11-30T17:37:40.109Z,101852.09
2022-11-30T17:43:00.195Z,101859.91
2022-11-30T17:48:10.368Z,101862.56
2022-11-30T17:53:21.271Z,101865.16
2022-11-30T17:58:23.987Z,101867.78
2022-11-30T18:03:24.086Z,101866.03
2022-11-30T18:08:23.386Z,101882.44
2022-11-30T18:13:24.382Z,101890.28
2022-11-30T18:18:24.038Z,101899.81
2022-11-30T18:23:23.382Z,101898.09
2022-11-30T18:28:24.002Z,101902.41
2022-11-30T18:33:24.477Z,101896.38
2022-11-30T18:38:34.175Z,101898.13
2022-11-30T18:43:40.093Z,101895.44
2022-11-30T18:48:41.063Z,101900.66
2022-11-30T18:53:40.140Z,101892.81
2022-11-30T18:58:40.984Z,101904.13
2022-11-30T19:03:40.756Z,101896.25
2022-11-30T19:08:41.865Z,101896.22
2022-11-30T19:13:45.005Z,101893.59
2022-11-30T19:18:46.185Z,101888.41
2022-11-30T19:23:46.716Z,101884.09
2022-11-30T19:28:48.238Z,101894.50
2022-11-30T19:33:52.627Z,101884.97
2022-11-30T19:39:03.847Z,101892.75
2022-11-30T19:44:05.702Z,101897.09
2022-11-30T19:49:11.540Z,101897.09
2022-11-30T19:54:15.812Z,101897.97
2022-11-30T19:59:28.495Z,101898.00
2022-11-30T20:04:32.239Z,101912.72
2022-11-30T20:09:35.189Z,101905.78
2022-11-30T20:14:37.098Z,101917.97
2022-11-30T20:19:36.208Z,101910.06
2022-11-30T20:24:35.364Z,101913.63
2022-11-30T20:29:36.266Z,101922.34
2022-11-30T20:34:42.369Z,101919.72
2022-11-30T20:39:46.027Z,101913.66
2022-11-30T20:44:47.588Z,101924.94
2022-11-30T20:49:50.037Z,101924.97
2022-11-30T20:54:53.092Z,101917.16
2022-11-30T20:59:55.853Z,101911.94
2022-11-30T21:04:55.264Z,101910.19
2022-11-30T21:09:55.727Z,101909.41
2022-11-30T21:16:13.218Z,101911.03
2022-11-30T21:28:20.613Z,101913.75
2022-11-30T21:39:02.829Z,101901.63
2022-11-30T21:44:06.896Z,101903.31
2022-11-30T21:49:06.144Z,101907.63
2022-11-30T21:54:07.611Z,101910.25
2022-11-30T21:59:10.323Z,101907.63
2022-11-30T22:04:10.801Z,101912.00
2022-11-30T22:09:13.958Z,101904.19
2022-11-30T22:14:16.826Z,101916.38
2022-11-30T22:19:16.497Z,101916.34
2022-11-30T22:24:15.487Z,101913.78
2022-11-30T22:29:17.296Z,101918.06
2022-11-30T22:34:16.247Z,101922.41
2022-11-30T22:39:16.891Z,101921.56
2022-11-30T22:44:18.954Z,101917.25
2022-11-30T22:49:21.989Z,101912.03
2022-11-30T22:54:21.140Z,101886.00
2022-11-30T22:59:21.479Z,101892.94
2022-11-30T23:04:23.144Z,101893.78
2022-11-30T23:09:24.273Z,101891.22
2022-11-30T23:14:24.734Z,101887.72
2022-11-30T23:19:23.620Z,101885.88
2022-11-30T23:24:22.607Z,101885.88
2022-11-30T23:29:21.415Z,101884.25
2022-11-30T23:34:22.889Z,101883.34
2022-11-30T23:39:22.261Z,101891.19
2022-11-30T23:44:21.134Z,101882.50
2022-11-30T23:49:21.286Z,101884.25
2022-11-30T23:54:20.352Z,101897.25
2022-11-30T23:59:19.202Z,101901.63
